Etusivu
METAR-TAF:

METAR-TAF

Lentoasemat :

Rijeka, Kroatia

Leveyspiiri: 45-13N, Pituuspiiri: 014-35E, korkeus merenpinnasta: 85 m

Tämänhetkinen sää

Tämä raportti tehtiin 44 minuuttia sitten, kello 17.00 UTC
tyyntä
Lämpötila 5°C
Kosteus 70%
Ilmanpaine 1026 hPa
Näkyvyys 10 km tai enemmän
ei pilviä alle 1500 m:ssä eikä cumulonimbus-pilviä

METAR: LDRI 051700Z 00000KT CAVOK 05/M00 Q1026

Aika: 18:44 (17:44 UTC)

Sääennuste

Tämä raportti tehtiin 19 minuuttia sitten, kello 17.25 UTC
Ennuste voimassa 05. päivästä klo 18 UTC - 06. päivään klo 18 UTC
Tuuli 2 kn eri suunnista
Näkyvyys 10 km tai enemmän
Hajanaisia pilviä 4000 ft:n korkeudessa
Todennäköisyys 30% :
Ajoittain
06. päivästä klo 10 UTC - 06. päivään klo 18 UTC
Tuuli 8 kn idästä/kaakosta
Hajonneita pilviä 1000 ft:n korkeudessa
sadetta

TAF: LDRI 051725Z 0518/0618 VRB02KT 9999 SCT040 TX11/0613Z TN05/0520Z PROB30 TEMPO 0610/0618 12008KT RA BKN010

Säähavainnot ja -ennusteet yli 4000 lentoasemalta (METAR- ja TAF-raportit).

Käytössä olevat sääasemat on merkitty karttaan keltaisilla ja punaisilla pisteillä.

Aseta hiiri pisteen päälle nähdäksesi sääaseman nimen.

Klikkaa sitten nähdäksesi säähavainnot ja -ennusteet.

Kartan vaihtaminen: klikkaa mustalla rastilla varustettuja vihreitä pisteitä, niin voit zoomata sisään; viivalla varustettua vihreää pistettä, niin voit zoomata ulos tai vihreitä nuolia, niin pääset viereisille kartoille.


METAR-TAF: